createdAt,value
2022-11-04T02:26:01.480Z,92.20
2022-11-04T02:30:15.866Z,92.20
2022-11-04T02:56:01.674Z,92.40
2022-11-04T03:15:46.077Z,92.70
2022-11-04T03:27:46.339Z,92.70
2022-11-04T03:42:28.692Z,92.90
2022-11-04T03:56:52.839Z,92.70
2022-11-04T04:31:11.756Z,93.00
2022-11-04T05:12:00.523Z,93.00
2022-11-04T05:15:39.463Z,93.10
2022-11-04T05:23:49.125Z,92.70
2022-11-04T05:57:02.954Z,92.50
2022-11-04T06:00:28.100Z,92.70
2022-11-04T06:16:49.665Z,93.00
2022-11-04T06:19:17.319Z,92.80
2022-11-04T06:21:44.973Z,92.90
2022-11-04T06:24:12.890Z,92.90
2022-11-04T06:26:40.507Z,93.00
2022-11-04T06:29:08.407Z,92.90
2022-11-04T06:31:36.412Z,92.80
2022-11-04T06:34:04.484Z,92.70
2022-11-04T06:36:32.701Z,92.60
2022-11-04T06:39:04.673Z,92.50
2022-11-04T06:41:32.926Z,92.40
2022-11-04T06:44:00.874Z,92.40
2022-11-04T06:46:34.583Z,92.50
2022-11-04T06:49:02.597Z,92.60
2022-11-04T06:51:30.779Z,92.70
2022-11-04T06:53:58.401Z,92.70
2022-11-04T06:56:26.117Z,92.70
2022-11-04T06:58:54.634Z,92.80
2022-11-04T07:01:23.845Z,92.90
2022-11-04T07:03:52.521Z,93.10
2022-11-04T07:06:20.408Z,93.10
2022-11-04T07:08:52.614Z,93.20
2022-11-04T07:11:21.334Z,93.20
2022-11-04T07:13:49.418Z,93.30
2022-11-04T07:16:17.606Z,93.20
2022-11-04T07:18:45.318Z,93.10
2022-11-04T07:21:13.110Z,93.20
2022-11-04T07:23:40.795Z,93.30
2022-11-04T07:26:10.219Z,93.40
2022-11-04T07:28:37.986Z,93.50
2022-11-04T07:31:06.168Z,93.60
2022-11-04T07:33:34.169Z,93.70
2022-11-04T07:36:05.752Z,93.70
2022-11-04T07:38:33.322Z,93.80
2022-11-04T07:41:02.431Z,93.70
2022-11-04T07:43:30.657Z,93.70
2022-11-04T07:46:06.295Z,93.60
2022-11-04T07:48:33.869Z,93.60
2022-11-04T07:51:01.496Z,93.60
2022-11-04T07:53:29.932Z,93.80
2022-11-04T07:55:57.795Z,93.90
2022-11-04T07:58:25.941Z,94.00
2022-11-04T08:01:01.011Z,93.90
2022-11-04T08:03:28.926Z,93.90
2022-11-04T08:06:00.034Z,94.00
2022-11-04T08:08:27.896Z,93.80
2022-11-04T08:10:57.117Z,93.80
2022-11-04T08:13:27.361Z,93.70
2022-11-04T08:15:55.213Z,93.70
2022-11-04T08:18:23.449Z,93.70
2022-11-04T08:20:52.034Z,93.70
2022-11-04T08:23:20.327Z,93.70
2022-11-04T08:25:48.290Z,93.70
2022-11-04T08:28:19.022Z,93.60
2022-11-04T08:31:02.092Z,93.40
2022-11-04T08:33:31.094Z,93.40
2022-11-04T08:36:03.130Z,93.30
2022-11-04T08:38:30.722Z,93.30
2022-11-04T08:41:00.162Z,93.40
2022-11-04T08:43:28.130Z,93.60
2022-11-04T08:45:56.259Z,93.80
2022-11-04T08:48:24.020Z,93.90
2022-11-04T08:50:53.528Z,93.90
2022-11-04T08:53:42.370Z,93.80
2022-11-04T08:57:02.231Z,93.70
2022-11-04T09:00:25.460Z,93.70
2022-11-04T09:03:00.378Z,93.60
2022-11-04T09:05:58.031Z,93.60
2022-11-04T09:54:18.376Z,93.20
2022-11-04T10:04:55.196Z,93.20
2022-11-04T17:27:03.884Z,82.30
2022-11-04T17:34:48.000Z,82.10
2022-11-04T17:50:01.500Z,81.90
2022-11-04T18:22:14.349Z,81.30
2022-11-04T18:30:47.534Z,81.40
2022-11-04T18:37:46.820Z,81.40
2022-11-04T18:40:34.048Z,81.50
2022-11-04T18:56:16.584Z,81.80
2022-11-04T18:58:46.770Z,81.80
2022-11-04T19:06:06.965Z,81.80
2022-11-04T19:17:31.906Z,81.60
2022-11-04T19:20:44.672Z,81.60
2022-11-04T19:44:40.228Z,81.60
2022-11-04T19:48:22.137Z,81.80
2022-11-04T19:52:45.974Z,82.00
2022-11-04T19:56:24.831Z,82.30
2022-11-04T20:22:20.154Z,82.70
2022-11-04T20:45:38.936Z,82.60
2022-11-04T20:48:07.119Z,82.80
2022-11-04T20:50:35.693Z,82.90
2022-11-04T20:53:03.216Z,82.90
2022-11-04T20:55:31.221Z,82.90
2022-11-04T20:57:58.937Z,82.90
2022-11-04T21:00:26.627Z,82.90
2022-11-04T21:02:54.504Z,82.90
2022-11-04T21:05:22.240Z,83.00
2022-11-04T21:07:50.094Z,83.00
2022-11-04T21:10:17.852Z,83.00
2022-11-04T21:12:45.496Z,83.10
2022-11-04T21:15:34.306Z,83.10
2022-11-04T21:18:02.022Z,83.10
2022-11-04T21:20:29.684Z,83.10
2022-11-04T21:22:57.336Z,83.10
2022-11-04T21:25:25.076Z,83.10
2022-11-04T21:27:52.557Z,83.10
2022-11-04T21:30:20.062Z,83.20
2022-11-04T21:32:47.485Z,83.20
2022-11-04T21:35:14.833Z,83.30
2022-11-04T21:37:42.387Z,83.20
2022-11-04T21:40:10.092Z,83.20
2022-11-04T21:42:37.528Z,83.20
2022-11-04T21:45:05.381Z,83.10
2022-11-04T21:47:32.901Z,83.10
2022-11-04T21:50:00.354Z,83.00
2022-11-04T21:52:27.792Z,83.00
2022-11-04T21:54:55.166Z,83.00
2022-11-04T21:57:22.722Z,83.10
2022-11-04T21:59:50.242Z,83.00
2022-11-04T22:02:17.985Z,83.10
2022-11-04T22:04:45.661Z,83.10
2022-11-04T22:07:13.324Z,83.10
2022-11-04T22:09:41.368Z,83.10
2022-11-04T22:12:09.357Z,83.10
2022-11-04T22:14:37.470Z,83.10
2022-11-04T22:17:05.064Z,83.10
2022-11-04T22:19:32.568Z,83.10
2022-11-04T22:22:01.726Z,83.10
2022-11-04T22:24:29.184Z,83.00
2022-11-04T22:26:56.741Z,83.00
2022-11-04T22:29:24.458Z,83.00
2022-11-04T22:31:52.387Z,83.00
2022-11-04T22:34:19.890Z,83.10
2022-11-04T22:36:47.742Z,83.20
2022-11-04T22:39:17.284Z,83.30
2022-11-04T22:41:48.032Z,83.40
2022-11-04T22:44:15.753Z,83.50
2022-11-04T22:46:43.509Z,83.50
2022-11-04T22:49:11.133Z,83.50
2022-11-04T22:51:44.490Z,83.60
2022-11-04T22:54:12.246Z,83.60
2022-11-04T22:56:39.764Z,83.60
2022-11-04T22:59:08.116Z,83.70
2022-11-04T23:01:36.072Z,83.80
2022-11-04T23:04:06.548Z,83.80
2022-11-04T23:06:34.351Z,83.80
2022-11-04T23:09:02.267Z,83.80
2022-11-04T23:11:49.090Z,83.90
2022-11-04T23:15:05.237Z,84.00
2022-11-04T23:17:51.359Z,84.10
2022-11-04T23:20:19.782Z,84.20
2022-11-04T23:23:05.756Z,84.20
2022-11-04T23:25:33.588Z,84.30
2022-11-04T23:28:19.855Z,84.40
2022-11-04T23:30:51.822Z,84.40
2022-11-04T23:33:46.062Z,84.50
2022-11-04T23:36:32.202Z,84.60
2022-11-04T23:38:59.578Z,84.60
2022-11-04T23:41:45.617Z,84.70
2022-11-04T23:44:33.170Z,84.70
2022-11-04T23:47:21.285Z,84.80
2022-11-04T23:50:28.826Z,84.80
2022-11-04T23:53:15.031Z,84.90
2022-11-04T23:56:01.815Z,84.90
2022-11-04T23:58:47.931Z,85.00
